Flight Track Log - Related Links

Times and Time Zones

All times are in EDT time to prevent confusion due to time zone crossing. See the EGF3681 flight status page for this flight to view local times or setup timezone preferences in your user account.

Time Position Orientation Groundspeed Altitude Reporting Facility
EDT Latitude Longitude Course Direction KTS MPH feet Rate Location/Type
Fri 11:03:00 PM 41.8124 -87.5895 95° East  Level Estimated
Fri 11:04:00 PM 41.8451 -87.4671 70° East  Level FlightAware Approximate
Fri 11:05:00 PM 41.7864 -87.3638 90° East  Level Estimated
Fri 11:05:58 PM 42.1030 -87.5680 90° East 100 115 12,500  Level FlightAware ADS-B
Fri 11:06:00 PM 41.7276 -87.2606 90° East  Level Estimated
Fri 11:06:23 PM 42.0870 -87.5200 114° Southeast 314 361 13,200  Level FlightAware ADS-B
Fri 11:07:04 PM 42.0660 -87.4540 113° Southeast 324 373 13,500 234 Climbing FlightAware ADS-B
Fri 11:07:40 PM 42.0480 -87.3970 113° Southeast 324 373 13,500  Level FlightAware ADS-B
Fri 11:08:16 PM 42.0310 -87.3400 112° Southeast 324 373 13,500 2,382 Level FlightAware ADS-B
Fri 11:08:48 PM 41.9960 -87.2230 112° Southeast 324 373 16,200 2,500 Climbing FlightAware ADS-B
Fri 11:09:28 PM 41.9730 -87.1440 111° Southeast 378 435 16,500 234 Climbing FlightAware ADS-B
Fri 11:10:05 PM 41.9530 -87.0750 111° Southeast 378 435 16,500  Level FlightAware ADS-B
Fri 11:10:41 PM 41.9340 -87.0080 111° Southeast 378 435 16,500 3,000 Level FlightAware ADS-B
Fri 11:11:03 PM 41.9340 -86.9040 90° East 441 507 19,400 3,895 Climbing FlightAware ADS-B
Fri 11:11:38 PM 41.8970 -86.8350 126° Southeast 392 451 20,200 1,333 Climbing FlightAware ADS-B
Fri 11:11:48 PM 41.8850 -86.8180 133° Southeast 394 453 20,400 1,200 Climbing FlightAware ADS-B
Fri 11:12:03 PM 41.8700 -86.7880 124° Southeast 407 468 20,700 716 Climbing FlightAware ADS-B
Fri 11:12:55 PM 41.8160 -86.6940 128° Southeast 411 473 21,200 1,412 Climbing FlightAware ADS-B
Fri 11:13:28 PM 41.7750 -86.6170 126° Southeast 401 461 22,700 1,391 Climbing FlightAware ADS-B
Fri 11:14:04 PM 41.7430 -86.5610 127° Southeast 401 461 22,800 83 Climbing FlightAware ADS-B
Fri 11:14:40 PM 41.7080 -86.5010 128° Southeast 401 461 22,800 174 Level FlightAware ADS-B
Fri 11:15:13 PM 41.6510 -86.3930 125° Southeast 440 506 23,000 156 Climbing FlightAware ADS-B
Fri 11:15:57 PM 41.6020 -86.3090 128° Southeast 420 483 23,000  Level FlightAware ADS-B
Fri 11:16:33 PM 41.5650 -86.2470 129° Southeast 420 483 23,000  Level FlightAware ADS-B
Fri 11:17:05 PM 41.5100 -86.1420 125° Southeast 420 483 23,000  Level FlightAware ADS-B
Fri 11:17:20 PM 41.4920 -86.1080 125° Southeast 420 483 23,000  Level FlightAware ADS-B
Fri 11:17:55 PM 41.4450 -86.0270 128° Southeast 478 550 23,000  Level FlightAware ADS-B
Fri 11:18:30 PM 41.4000 -85.9450 126° Southeast 431 496 23,000  Level FlightAware ADS-B
Fri 11:19:13 PM 41.3610 -85.8760 127° Southeast 431 496 23,000  Level FlightAware ADS-B
Fri 11:19:49 PM 41.3240 -85.8110 127° Southeast 431 496 23,000  Level FlightAware ADS-B
Fri 11:20:26 PM 41.2860 -85.7440 127° Southeast 431 496 23,000  Level FlightAware ADS-B
Fri 11:20:50 PM 41.2300 -85.6430 126° Southeast 431 496 23,000  Level FlightAware ADS-B
Fri 11:21:11 PM 41.2050 -85.5980 126° Southeast 431 496 23,000  Level FlightAware ADS-B
Fri 11:21:25 PM 41.1800 -85.5410 120° Southeast 431 496 23,000  Level FlightAware ADS-B
Fri 11:22:02 PM 41.1860 -85.6230 276° West 431 496 23,000  Level FlightAware ADS-B
Fri 11:22:38 PM 41.1930 -85.7040 277° West 431 496 23,000  Level FlightAware ADS-B
Fri 11:23:14 PM 41.1990 -85.7850 276° West 431 496 23,000  Level FlightAware ADS-B
Fri 11:23:50 PM 41.2060 -85.8650 277° West 431 496 23,000  Level FlightAware ADS-B
Fri 11:24:25 PM 41.2120 -85.9440 276° West 431 496 23,000  Level FlightAware ADS-B
Fri 11:25:02 PM 41.2180 -86.0270 276° West 431 496 23,000 -1,791 Level FlightAware ADS-B
Fri 11:25:32 PM 40.8711 -85.0278 276° West 438 504 21,000 -1,333 Descending Indianapolis Center
Fri 11:26:32 PM 40.7800 -84.9367 143° Southeast 415 478 21,000 -248 Level Indianapolis Center
Fri 11:27:33 PM 40.6872 -84.8603 148° Southeast 397 457 20,500 -738 Descending Indianapolis Center
Fri 11:28:34 PM 40.5947 -84.7817 147° Southeast 396 456 19,500 -1,077 Descending Indianapolis Center
Fri 11:28:51 PM 40.5564 -84.7503 148° Southeast 389 448 19,100 -984 Descending Indianapolis Center
Fri 11:29:35 PM 40.5011 -84.7067 149° Southeast 395 455 18,500 -988 Descending Indianapolis Center
Fri 11:30:16 PM 40.4211 -84.6394 147° Southeast 393 452 17,700 -1,100 Descending Indianapolis Center
Fri 11:30:35 PM 40.3911 -84.6156 149° Southeast 393 452 17,400 -1,770 Descending Indianapolis Center
Fri 11:31:17 PM 40.3342 -84.5681 148° Southeast 362 417 15,900 -2,557 Descending Indianapolis Center
Fri 11:31:36 PM 40.3081 -84.5456 147° Southeast 368 423 14,800 -3,556 Descending Indianapolis Center
Fri 11:32:11 PM 40.2667 -84.4925 136° Southeast 341 392 12,700 -3,541 Descending Indianapolis Center
Fri 11:32:37 PM 40.2406 -84.4608 137° Southeast 344 396 11,200 -2,557 Descending Indianapolis Center
Fri 11:33:12 PM 40.1994 -84.4114 137° Southeast 329 379 10,100 -1,672 Descending Indianapolis Center
Fri 11:33:38 PM 40.1767 -84.3844 138° Southeast 325 374 9,500 -1,714 Descending Indianapolis Center
Fri 11:33:54 PM 40.1603 -84.3658 139° Southeast 279 321 8,900 -2,400 Descending Indianapolis Center
Fri 11:34:38 PM 40.1194 -84.3189 139° Southeast 297 342 7,100 -2,262 Descending Indianapolis Center
Fri 11:34:55 PM 40.1022 -84.2978 137° Southeast 265 305 6,600 -1,869 Descending Indianapolis Center
Fri 11:35:39 PM 40.0656 -84.2550 138° Southeast 278 320 5,200 -1,869 Descending Indianapolis Center
Fri 11:35:56 PM 40.0500 -84.2364 138° Southeast 257 296 4,700 -1,574 Descending Indianapolis Center
Fri 11:36:40 PM 40.0122 -84.1964 141° Southeast 264 304 3,600 -1,455 Descending Indianapolis Center
Fri 11:37:02 PM 39.9872 -84.1731 144° Southeast 237 273 3,100 -1,100 Descending Indianapolis Center
Fri 11:37:40 PM 39.9564 -84.1619 165° South 242 278 2,500 -1,091 Descending Indianapolis Center
Fri 11:37:57 PM 39.9394 -84.1672 193° South 197 227 2,100 -590 Descending Indianapolis Center
Fri 11:38:41 PM 39.9169 -84.2058 233° Southwest 219 252 1,900 -273 Descending Indianapolis Center

Login

Don't have an account? Register now (free) for customized features, flight alerts, and more!